sensor_id;sensor_type;location;lat;lon;timestamp;pressure;altitude;pressure_sealevel;temperature;humidity
29379;BME280;16362;47.202;15.258;2022-11-20T00:00:11;95610.84;;;0.57;100.00
29379;BME280;16362;47.202;15.258;2022-11-20T00:02:38;95617.28;;;0.64;100.00
29379;BME280;16362;47.202;15.258;2022-11-20T00:05:05;95619.63;;;0.67;100.00
29379;BME280;16362;47.202;15.258;2022-11-20T00:07:31;95615.78;;;0.71;100.00
29379;BME280;16362;47.202;15.258;2022-11-20T00:09:58;95611.25;;;0.73;100.00
29379;BME280;16362;47.202;15.258;2022-11-20T00:12:25;95607.41;;;0.77;100.00
29379;BME280;16362;47.202;15.258;2022-11-20T00:14:51;95616.22;;;0.76;100.00
29379;BME280;16362;47.202;15.258;2022-11-20T00:17:18;95617.47;;;0.72;100.00
29379;BME280;16362;47.202;15.258;2022-11-20T00:19:44;95619.38;;;0.70;100.00
29379;BME280;16362;47.202;15.258;2022-11-20T00:22:11;95628.78;;;0.73;100.00
29379;BME280;16362;47.202;15.258;2022-11-20T00:24:37;95633.78;;;0.76;100.00
29379;BME280;16362;47.202;15.258;2022-11-20T00:27:08;95634.63;;;0.76;100.00
29379;BME280;16362;47.202;15.258;2022-11-20T00:29:34;95636.53;;;0.74;100.00
29379;BME280;16362;47.202;15.258;2022-11-20T00:32:01;95639.81;;;0.66;100.00
29379;BME280;16362;47.202;15.258;2022-11-20T00:34:27;95635.84;;;0.72;100.00
29379;BME280;16362;47.202;15.258;2022-11-20T00:36:54;95633.22;;;0.72;100.00
29379;BME280;16362;47.202;15.258;2022-11-20T00:39:20;95633.34;;;0.71;100.00
29379;BME280;16362;47.202;15.258;2022-11-20T00:41:47;95630.44;;;0.74;100.00
29379;BME280;16362;47.202;15.258;2022-11-20T00:44:14;95637.50;;;0.73;100.00
29379;BME280;16362;47.202;15.258;2022-11-20T00:46:40;95640.38;;;0.70;100.00
29379;BME280;16362;47.202;15.258;2022-11-20T00:49:07;95639.78;;;0.88;100.00
29379;BME280;16362;47.202;15.258;2022-11-20T00:51:34;95640.06;;;0.84;100.00
29379;BME280;16362;47.202;15.258;2022-11-20T00:54:00;95638.06;;;0.77;100.00
29379;BME280;16362;47.202;15.258;2022-11-20T00:56:28;95637.25;;;0.76;100.00
29379;BME280;16362;47.202;15.258;2022-11-20T00:58:55;95635.97;;;0.71;100.00
29379;BME280;16362;47.202;15.258;2022-11-20T01:01:22;95647.38;;;0.60;100.00
29379;BME280;16362;47.202;15.258;2022-11-20T01:03:54;95668.75;;;0.55;100.00
29379;BME280;16362;47.202;15.258;2022-11-20T01:06:21;95665.66;;;0.50;100.00
29379;BME280;16362;47.202;15.258;2022-11-20T01:08:48;95669.16;;;0.50;100.00
29379;BME280;16362;47.202;15.258;2022-11-20T01:11:17;95669.41;;;0.47;100.00
29379;BME280;16362;47.202;15.258;2022-11-20T01:13:44;95672.47;;;0.53;100.00
29379;BME280;16362;47.202;15.258;2022-11-20T01:18:41;95672.41;;;0.64;100.00
29379;BME280;16362;47.202;15.258;2022-11-20T01:21:09;95673.44;;;0.73;100.00
29379;BME280;16362;47.202;15.258;2022-11-20T01:23:37;95678.41;;;0.76;100.00
29379;BME280;16362;47.202;15.258;2022-11-20T01:26:05;95670.16;;;0.80;100.00
29379;BME280;16362;47.202;15.258;2022-11-20T01:28:32;95668.72;;;0.66;100.00
29379;BME280;16362;47.202;15.258;2022-11-20T01:30:59;95669.97;;;0.72;100.00
29379;BME280;16362;47.202;15.258;2022-11-20T01:33:26;95678.19;;;0.79;100.00
29379;BME280;16362;47.202;15.258;2022-11-20T01:35:53;95674.84;;;0.77;100.00
29379;BME280;16362;47.202;15.258;2022-11-20T01:38:29;95668.38;;;0.81;100.00
29379;BME280;16362;47.202;15.258;2022-11-20T01:40:55;95666.06;;;0.88;100.00
29379;BME280;16362;47.202;15.258;2022-11-20T01:43:22;95674.38;;;0.93;100.00
29379;BME280;16362;47.202;15.258;2022-11-20T01:48:18;95664.16;;;0.90;100.00
29379;BME280;16362;47.202;15.258;2022-11-20T01:50:45;95668.44;;;0.91;100.00
29379;BME280;16362;47.202;15.258;2022-11-20T01:53:13;95665.56;;;0.94;100.00
29379;BME280;16362;47.202;15.258;2022-11-20T01:55:41;95661.56;;;0.99;100.00
29379;BME280;16362;47.202;15.258;2022-11-20T01:58:10;95661.44;;;1.01;100.00
29379;BME280;16362;47.202;15.258;2022-11-20T02:00:37;95663.94;;;1.03;100.00
29379;BME280;16362;47.202;15.258;2022-11-20T02:03:05;95658.44;;;1.06;100.00
29379;BME280;16362;47.202;15.258;2022-11-20T02:08:18;95662.06;;;1.14;100.00
29379;BME280;16362;47.202;15.258;2022-11-20T02:10:45;95658.75;;;1.12;100.00
29379;BME280;16362;47.202;15.258;2022-11-20T02:13:12;95661.38;;;1.12;100.00
29379;BME280;16362;47.202;15.258;2022-11-20T02:18:56;95659.56;;;1.13;100.00
29379;BME280;16362;47.202;15.258;2022-11-20T02:21:43;95659.84;;;1.10;100.00
29379;BME280;16362;47.202;15.258;2022-11-20T02:24:16;95660.94;;;1.07;100.00
29379;BME280;16362;47.202;15.258;2022-11-20T02:29:15;95646.56;;;1.11;100.00
29379;BME280;16362;47.202;15.258;2022-11-20T02:31:43;95650.13;;;1.10;100.00
29379;BME280;16362;47.202;15.258;2022-11-20T02:34:10;95648.47;;;1.09;100.00
29379;BME280;16362;47.202;15.258;2022-11-20T02:36:36;95642.97;;;1.12;100.00
29379;BME280;16362;47.202;15.258;2022-11-20T02:39:04;95641.03;;;1.14;100.00
29379;BME280;16362;47.202;15.258;2022-11-20T02:41:35;95648.66;;;1.17;100.00
29379;BME280;16362;47.202;15.258;2022-11-20T02:44:02;95637.44;;;1.15;100.00
29379;BME280;16362;47.202;15.258;2022-11-20T02:46:29;95632.72;;;1.19;100.00
29379;BME280;16362;47.202;15.258;2022-11-20T02:48:56;95636.09;;;1.21;100.00
29379;BME280;16362;47.202;15.258;2022-11-20T02:51:23;95637.63;;;1.24;100.00
29379;BME280;16362;47.202;15.258;2022-11-20T02:53:50;95623.75;;;1.22;100.00
29379;BME280;16362;47.202;15.258;2022-11-20T02:56:16;95625.16;;;1.26;100.00
29379;BME280;16362;47.202;15.258;2022-11-20T02:58:43;95638.31;;;1.26;100.00
29379;BME280;16362;47.202;15.258;2022-11-20T03:01:09;95633.72;;;1.18;100.00
29379;BME280;16362;47.202;15.258;2022-11-20T03:03:36;95634.81;;;1.15;100.00
29379;BME280;16362;47.202;15.258;2022-11-20T03:06:02;95632.47;;;1.12;100.00
29379;BME280;16362;47.202;15.258;2022-11-20T03:08:29;95633.66;;;1.08;100.00
29379;BME280;16362;47.202;15.258;2022-11-20T03:10:55;95626.44;;;1.00;100.00
29379;BME280;16362;47.202;15.258;2022-11-20T03:13:22;95622.16;;;0.99;100.00
29379;BME280;16362;47.202;15.258;2022-11-20T03:15:49;95616.44;;;0.94;100.00
29379;BME280;16362;47.202;15.258;2022-11-20T03:18:15;95618.00;;;0.97;100.00
29379;BME280;16362;47.202;15.258;2022-11-20T03:20:42;95615.22;;;0.98;100.00
29379;BME280;16362;47.202;15.258;2022-11-20T03:23:08;95616.31;;;0.96;100.00
29379;BME280;16362;47.202;15.258;2022-11-20T03:25:35;95615.09;;;1.00;100.00
29379;BME280;16362;47.202;15.258;2022-11-20T03:28:01;95622.72;;;1.03;100.00
29379;BME280;16362;47.202;15.258;2022-11-20T03:30:28;95623.16;;;1.08;100.00
29379;BME280;16362;47.202;15.258;2022-11-20T03:32:56;95627.44;;;1.09;100.00
29379;BME280;16362;47.202;15.258;2022-11-20T03:35:22;95619.84;;;1.06;100.00
29379;BME280;16362;47.202;15.258;2022-11-20T03:37:49;95630.63;;;1.03;100.00
29379;BME280;16362;47.202;15.258;2022-11-20T03:40:15;95628.81;;;1.04;100.00
29379;BME280;16362;47.202;15.258;2022-11-20T03:42:42;95630.84;;;1.00;100.00
29379;BME280;16362;47.202;15.258;2022-11-20T03:45:12;95632.03;;;0.86;100.00
29379;BME280;16362;47.202;15.258;2022-11-20T03:47:39;95629.28;;;0.88;100.00
29379;BME280;16362;47.202;15.258;2022-11-20T03:50:06;95622.78;;;0.92;100.00
29379;BME280;16362;47.202;15.258;2022-11-20T03:52:33;95632.09;;;0.96;100.00
29379;BME280;16362;47.202;15.258;2022-11-20T03:54:59;95635.88;;;1.03;100.00
29379;BME280;16362;47.202;15.258;2022-11-20T03:57:26;95630.63;;;1.03;100.00
29379;BME280;16362;47.202;15.258;2022-11-20T03:59:52;95632.97;;;1.06;100.00
29379;BME280;16362;47.202;15.258;2022-11-20T04:02:19;95626.91;;;1.06;100.00
29379;BME280;16362;47.202;15.258;2022-11-20T04:04:45;95624.13;;;1.07;100.00
29379;BME280;16362;47.202;15.258;2022-11-20T04:07:12;95625.66;;;1.10;100.00
29379;BME280;16362;47.202;15.258;2022-11-20T04:09:39;95623.41;;;1.05;100.00
29379;BME280;16362;47.202;15.258;2022-11-20T04:12:05;95625.88;;;0.97;100.00
29379;BME280;16362;47.202;15.258;2022-11-20T04:14:32;95621.56;;;0.96;100.00
29379;BME280;16362;47.202;15.258;2022-11-20T04:16:58;95621.34;;;0.99;100.00
29379;BME280;16362;47.202;15.258;2022-11-20T04:19:25;95620.47;;;0.98;100.00
29379;BME280;16362;47.202;15.258;2022-11-20T04:21:51;95615.81;;;1.02;100.00
29379;BME280;16362;47.202;15.258;2022-11-20T04:24:18;95610.28;;;1.05;100.00
29379;BME280;16362;47.202;15.258;2022-11-20T04:26:44;95613.34;;;1.10;100.00
29379;BME280;16362;47.202;15.258;2022-11-20T04:29:11;95607.97;;;1.12;100.00
29379;BME280;16362;47.202;15.258;2022-11-20T04:31:38;95610.31;;;1.15;100.00
29379;BME280;16362;47.202;15.258;2022-11-20T04:34:05;95606.44;;;1.19;100.00
29379;BME280;16362;47.202;15.258;2022-11-20T04:36:32;95603.13;;;1.17;100.00
29379;BME280;16362;47.202;15.258;2022-11-20T04:39:01;95603.97;;;1.17;100.00
29379;BME280;16362;47.202;15.258;2022-11-20T04:41:29;95595.84;;;1.21;100.00
29379;BME280;16362;47.202;15.258;2022-11-20T04:43:57;95595.84;;;1.21;100.00
29379;BME280;16362;47.202;15.258;2022-11-20T04:46:26;95593.22;;;1.21;100.00
29379;BME280;16362;47.202;15.258;2022-11-20T04:48:53;95592.50;;;1.18;100.00
29379;BME280;16362;47.202;15.258;2022-11-20T04:51:20;95591.53;;;1.20;100.00
29379;BME280;16362;47.202;15.258;2022-11-20T04:53:46;95586.41;;;1.18;100.00
29379;BME280;16362;47.202;15.258;2022-11-20T04:56:13;95589.19;;;1.16;100.00
29379;BME280;16362;47.202;15.258;2022-11-20T04:58:39;95576.28;;;1.13;100.00
29379;BME280;16362;47.202;15.258;2022-11-20T05:01:07;95573.94;;;1.10;100.00
29379;BME280;16362;47.202;15.258;2022-11-20T05:03:35;95577.66;;;1.08;100.00
29379;BME280;16362;47.202;15.258;2022-11-20T05:06:07;95574.59;;;1.03;100.00
29379;BME280;16362;47.202;15.258;2022-11-20T05:08:34;95571.13;;;1.02;100.00
29379;BME280;16362;47.202;15.258;2022-11-20T05:11:04;95577.22;;;1.03;100.00
29379;BME280;16362;47.202;15.258;2022-11-20T05:13:31;95585.22;;;1.01;100.00
29379;BME280;16362;47.202;15.258;2022-11-20T05:16:05;95578.72;;;0.95;100.00
29379;BME280;16362;47.202;15.258;2022-11-20T05:18:33;95572.63;;;0.95;100.00
29379;BME280;16362;47.202;15.258;2022-11-20T05:21:00;95578.44;;;0.98;100.00
29379;BME280;16362;47.202;15.258;2022-11-20T05:23:27;95586.31;;;0.98;100.00
29379;BME280;16362;47.202;15.258;2022-11-20T05:25:55;95584.53;;;0.99;100.00
29379;BME280;16362;47.202;15.258;2022-11-20T05:28:24;95590.91;;;0.96;100.00
29379;BME280;16362;47.202;15.258;2022-11-20T05:30:51;95583.38;;;0.92;100.00
29379;BME280;16362;47.202;15.258;2022-11-20T05:33:18;95577.31;;;0.91;100.00
29379;BME280;16362;47.202;15.258;2022-11-20T05:35:45;95575.78;;;0.89;100.00
29379;BME280;16362;47.202;15.258;2022-11-20T05:38:11;95575.06;;;0.87;100.00
29379;BME280;16362;47.202;15.258;2022-11-20T05:40:38;95577.97;;;0.83;100.00
29379;BME280;16362;47.202;15.258;2022-11-20T05:43:05;95572.84;;;0.82;100.00
29379;BME280;16362;47.202;15.258;2022-11-20T05:45:31;95588.75;;;0.80;100.00
29379;BME280;16362;47.202;15.258;2022-11-20T05:47:58;95581.81;;;0.79;100.00
29379;BME280;16362;47.202;15.258;2022-11-20T05:50:29;95589.00;;;0.77;100.00
29379;BME280;16362;47.202;15.258;2022-11-20T05:52:59;95587.34;;;0.76;100.00
29379;BME280;16362;47.202;15.258;2022-11-20T05:55:26;95587.34;;;0.76;100.00
29379;BME280;16362;47.202;15.258;2022-11-20T05:57:53;95601.44;;;0.75;100.00
29379;BME280;16362;47.202;15.258;2022-11-20T06:00:21;95600.97;;;0.70;100.00
29379;BME280;16362;47.202;15.258;2022-11-20T06:02:47;95589.78;;;0.68;100.00
29379;BME280;16362;47.202;15.258;2022-11-20T06:05:14;95605.41;;;0.70;100.00
29379;BME280;16362;47.202;15.258;2022-11-20T06:07:40;95598.50;;;0.69;100.00
29379;BME280;16362;47.202;15.258;2022-11-20T06:10:07;95591.63;;;0.77;100.00
29379;BME280;16362;47.202;15.258;2022-11-20T06:12:34;95607.09;;;0.71;100.00
29379;BME280;16362;47.202;15.258;2022-11-20T06:15:00;95611.75;;;0.67;100.00
29379;BME280;16362;47.202;15.258;2022-11-20T06:17:27;95609.41;;;0.64;100.00
29379;BME280;16362;47.202;15.258;2022-11-20T06:19:53;95607.72;;;0.63;100.00
29379;BME280;16362;47.202;15.258;2022-11-20T06:22:20;95607.00;;;0.61;100.00
29379;BME280;16362;47.202;15.258;2022-11-20T06:24:46;95615.69;;;0.52;100.00
29379;BME280;16362;47.202;15.258;2022-11-20T06:27:13;95610.78;;;0.47;100.00
29379;BME280;16362;47.202;15.258;2022-11-20T06:29:39;95613.56;;;0.45;100.00
29379;BME280;16362;47.202;15.258;2022-11-20T06:32:06;95613.41;;;0.47;100.00
29379;BME280;16362;47.202;15.258;2022-11-20T06:34:32;95620.06;;;0.51;100.00
29379;BME280;16362;47.202;15.258;2022-11-20T06:36:59;95617.19;;;0.54;100.00
29379;BME280;16362;47.202;15.258;2022-11-20T06:39:25;95619.72;;;0.56;100.00
29379;BME280;16362;47.202;15.258;2022-11-20T06:41:52;95623.16;;;0.56;100.00
29379;BME280;16362;47.202;15.258;2022-11-20T06:44:24;95623.03;;;0.58;100.00
29379;BME280;16362;47.202;15.258;2022-11-20T06:46:50;95627.06;;;0.62;100.00
29379;BME280;16362;47.202;15.258;2022-11-20T06:49:17;95624.97;;;0.56;100.00
29379;BME280;16362;47.202;15.258;2022-11-20T06:51:44;95629.63;;;0.52;100.00
29379;BME280;16362;47.202;15.258;2022-11-20T06:54:10;95641.66;;;0.55;100.00
29379;BME280;16362;47.202;15.258;2022-11-20T06:56:37;95631.75;;;0.58;100.00
29379;BME280;16362;47.202;15.258;2022-11-20T06:59:04;95641.13;;;0.61;100.00
29379;BME280;16362;47.202;15.258;2022-11-20T07:01:31;95640.72;;;0.56;100.00
29379;BME280;16362;47.202;15.258;2022-11-20T07:03:57;95643.22;;;0.57;100.00
29379;BME280;16362;47.202;15.258;2022-11-20T07:06:24;95647.88;;;0.54;100.00
29379;BME280;16362;47.202;15.258;2022-11-20T07:08:51;95651.47;;;0.53;100.00
29379;BME280;16362;47.202;15.258;2022-11-20T07:11:18;95652.94;;;0.45;100.00
29379;BME280;16362;47.202;15.258;2022-11-20T07:13:45;95660.41;;;0.50;100.00
29379;BME280;16362;47.202;15.258;2022-11-20T07:16:12;95649.28;;;0.58;100.00
29379;BME280;16362;47.202;15.258;2022-11-20T07:18:38;95663.00;;;0.61;100.00
29379;BME280;16362;47.202;15.258;2022-11-20T07:21:08;95658.19;;;0.66;100.00
29379;BME280;16362;47.202;15.258;2022-11-20T07:23:35;95662.66;;;0.76;100.00
29379;BME280;16362;47.202;15.258;2022-11-20T07:26:05;95659.06;;;0.77;100.00
29379;BME280;16362;47.202;15.258;2022-11-20T07:28:32;95654.28;;;0.82;100.00
29379;BME280;16362;47.202;15.258;2022-11-20T07:30:59;95656.25;;;0.90;100.00
29379;BME280;16362;47.202;15.258;2022-11-20T07:33:26;95661.69;;;0.98;100.00
29379;BME280;16362;47.202;15.258;2022-11-20T07:35:52;95671.00;;;1.02;100.00
29379;BME280;16362;47.202;15.258;2022-11-20T07:38:19;95672.38;;;1.06;100.00
29379;BME280;16362;47.202;15.258;2022-11-20T07:40:45;95671.88;;;1.12;100.00
29379;BME280;16362;47.202;15.258;2022-11-20T07:43:12;95668.13;;;1.15;100.00
29379;BME280;16362;47.202;15.258;2022-11-20T07:45:38;95663.19;;;1.22;100.00
29379;BME280;16362;47.202;15.258;2022-11-20T07:48:05;95664.84;;;1.23;100.00
29379;BME280;16362;47.202;15.258;2022-11-20T07:50:31;95667.59;;;1.11;100.00
29379;BME280;16362;47.202;15.258;2022-11-20T07:53:04;95671.06;;;1.22;100.00
29379;BME280;16362;47.202;15.258;2022-11-20T07:55:31;95673.00;;;1.20;100.00
29379;BME280;16362;47.202;15.258;2022-11-20T07:57:58;95667.63;;;1.21;100.00
29379;BME280;16362;47.202;15.258;2022-11-20T08:00:25;95677.31;;;1.21;100.00
29379;BME280;16362;47.202;15.258;2022-11-20T08:02:52;95671.78;;;1.24;100.00
29379;BME280;16362;47.202;15.258;2022-11-20T08:05:19;95675.09;;;1.26;100.00
29379;BME280;16362;47.202;15.258;2022-11-20T08:07:45;95671.25;;;1.30;100.00
29379;BME280;16362;47.202;15.258;2022-11-20T08:10:13;95677.66;;;1.37;100.00
29379;BME280;16362;47.202;15.258;2022-11-20T08:12:48;95673.94;;;1.40;100.00
29379;BME280;16362;47.202;15.258;2022-11-20T08:15:33;95687.13;;;1.49;100.00
29379;BME280;16362;47.202;15.258;2022-11-20T08:18:04;95687.56;;;1.55;100.00
29379;BME280;16362;47.202;15.258;2022-11-20T08:20:51;95693.63;;;1.55;100.00
29379;BME280;16362;47.202;15.258;2022-11-20T08:23:17;95695.44;;;1.55;100.00
29379;BME280;16362;47.202;15.258;2022-11-20T08:25:48;95702.38;;;1.56;100.00
29379;BME280;16362;47.202;15.258;2022-11-20T08:28:15;95700.72;;;1.55;100.00
29379;BME280;16362;47.202;15.258;2022-11-20T08:30:47;95705.00;;;1.56;100.00
29379;BME280;16362;47.202;15.258;2022-11-20T08:33:13;95709.16;;;1.58;100.00
29379;BME280;16362;47.202;15.258;2022-11-20T08:35:40;95711.66;;;1.60;100.00
29379;BME280;16362;47.202;15.258;2022-11-20T08:38:08;95710.31;;;1.65;100.00
29379;BME280;16362;47.202;15.258;2022-11-20T08:40:34;95714.47;;;1.68;100.00
29379;BME280;16362;47.202;15.258;2022-11-20T08:43:01;95714.63;;;1.76;100.00
29379;BME280;16362;47.202;15.258;2022-11-20T08:45:27;95717.94;;;1.78;100.00
29379;BME280;16362;47.202;15.258;2022-11-20T08:48:00;95714.22;;;1.81;100.00
29379;BME280;16362;47.202;15.258;2022-11-20T08:50:27;95713.69;;;1.87;100.00
29379;BME280;16362;47.202;15.258;2022-11-20T08:52:53;95718.81;;;1.89;100.00
29379;BME280;16362;47.202;15.258;2022-11-20T08:55:20;95720.72;;;1.87;100.00
29379;BME280;16362;47.202;15.258;2022-11-20T08:57:46;95718.09;;;1.87;100.00
29379;BME280;16362;47.202;15.258;2022-11-20T09:00:16;95712.47;;;1.91;100.00
29379;BME280;16362;47.202;15.258;2022-11-20T09:02:42;95715.78;;;1.93;100.00
29379;BME280;16362;47.202;15.258;2022-11-20T09:05:09;95716.34;;;1.97;100.00
29379;BME280;16362;47.202;15.258;2022-11-20T09:07:35;95720.38;;;2.01;100.00
29379;BME280;16362;47.202;15.258;2022-11-20T09:10:02;95715.69;;;2.05;100.00
29379;BME280;16362;47.202;15.258;2022-11-20T09:12:49;95728.84;;;2.05;100.00
29379;BME280;16362;47.202;15.258;2022-11-20T09:15:18;95717.88;;;2.09;100.00
29379;BME280;16362;47.202;15.258;2022-11-20T09:20:18;95720.00;;;2.15;100.00
29379;BME280;16362;47.202;15.258;2022-11-20T09:22:45;95720.00;;;2.25;100.00
29379;BME280;16362;47.202;15.258;2022-11-20T09:25:11;95714.47;;;2.38;100.00
29379;BME280;16362;47.202;15.258;2022-11-20T09:27:38;95712.53;;;2.30;100.00
29379;BME280;16362;47.202;15.258;2022-11-20T09:30:04;95717.22;;;2.36;100.00
29379;BME280;16362;47.202;15.258;2022-11-20T09:32:31;95713.63;;;2.28;100.00
29379;BME280;16362;47.202;15.258;2022-11-20T09:34:58;95719.19;;;2.25;100.00
29379;BME280;16362;47.202;15.258;2022-11-20T09:37:27;95719.00;;;2.16;100.00
29379;BME280;16362;47.202;15.258;2022-11-20T09:39:54;95715.31;;;2.29;100.00
29379;BME280;16362;47.202;15.258;2022-11-20T09:53:01;95702.00;;;2.79;100.00
29379;BME280;16362;47.202;15.258;2022-11-20T09:55:31;95708.22;;;2.88;100.00
29379;BME280;16362;47.202;15.258;2022-11-20T09:57:57;95706.56;;;2.97;100.00
29379;BME280;16362;47.202;15.258;2022-11-20T10:00:25;95698.94;;;2.94;100.00
29379;BME280;16362;47.202;15.258;2022-11-20T10:02:55;95698.22;;;2.92;100.00
29379;BME280;16362;47.202;15.258;2022-11-20T10:05:25;95695.56;;;3.01;100.00
29379;BME280;16362;47.202;15.258;2022-11-20T10:18:11;95676.59;;;3.35;100.00
29379;BME280;16362;47.202;15.258;2022-11-20T10:25:56;95673.88;;;3.65;100.00
29379;BME280;16362;47.202;15.258;2022-11-20T10:31:25;95674.50;;;3.77;100.00
29379;BME280;16362;47.202;15.258;2022-11-20T10:33:54;95673.09;;;3.82;100.00
29379;BME280;16362;47.202;15.258;2022-11-20T10:36:44;95665.09;;;3.92;100.00
29379;BME280;16362;47.202;15.258;2022-11-20T10:39:24;95658.44;;;3.98;100.00
29379;BME280;16362;47.202;15.258;2022-11-20T10:41:53;95645.06;;;3.99;100.00
29379;BME280;16362;47.202;15.258;2022-11-20T10:44:21;95648.22;;;4.03;100.00
29379;BME280;16362;47.202;15.258;2022-11-20T10:47:17;95655.09;;;4.14;100.00
29379;BME280;16362;47.202;15.258;2022-11-20T10:49:45;95649.09;;;4.21;100.00
29379;BME280;16362;47.202;15.258;2022-11-20T10:52:16;95651.13;;;4.28;100.00
29379;BME280;16362;47.202;15.258;2022-11-20T10:55:39;95650.34;;;4.35;100.00
29379;BME280;16362;47.202;15.258;2022-11-20T11:00:10;95657.44;;;4.53;100.00
29379;BME280;16362;47.202;15.258;2022-11-20T11:02:44;95650.44;;;4.62;100.00
29379;BME280;16362;47.202;15.258;2022-11-20T11:07:39;95650.13;;;4.65;100.00
29379;BME280;16362;47.202;15.258;2022-11-20T11:10:14;95640.81;;;4.79;100.00
29379;BME280;16362;47.202;15.258;2022-11-20T11:12:45;95635.91;;;4.84;100.00
29379;BME280;16362;47.202;15.258;2022-11-20T11:15:14;95626.47;;;4.81;100.00
29379;BME280;16362;47.202;15.258;2022-11-20T11:17:47;95634.00;;;4.76;100.00
29379;BME280;16362;47.202;15.258;2022-11-20T11:20:15;95631.47;;;4.66;100.00
29379;BME280;16362;47.202;15.258;2022-11-20T11:22:44;95629.13;;;4.63;100.00
29379;BME280;16362;47.202;15.258;2022-11-20T11:25:21;95626.56;;;4.71;100.00
29379;BME280;16362;47.202;15.258;2022-11-20T11:27:49;95625.31;;;4.84;100.00
29379;BME280;16362;47.202;15.258;2022-11-20T11:30:17;95620.25;;;4.91;100.00
29379;BME280;16362;47.202;15.258;2022-11-20T11:32:44;95626.47;;;4.81;100.00
29379;BME280;16362;47.202;15.258;2022-11-20T11:35:22;95623.31;;;4.60;100.00
29379;BME280;16362;47.202;15.258;2022-11-20T11:37:49;95625.00;;;4.61;100.00
29379;BME280;16362;47.202;15.258;2022-11-20T11:40:17;95625.00;;;4.61;100.00
29379;BME280;16362;47.202;15.258;2022-11-20T11:42:51;95622.34;;;4.61;100.00
29379;BME280;16362;47.202;15.258;2022-11-20T11:45:19;95619.69;;;4.61;100.00
29379;BME280;16362;47.202;15.258;2022-11-20T11:47:46;95615.56;;;4.58;100.00
29379;BME280;16362;47.202;15.258;2022-11-20T11:50:21;95615.09;;;4.63;100.00
29379;BME280;16362;47.202;15.258;2022-11-20T11:52:50;95615.94;;;4.63;100.00
29379;BME280;16362;47.202;15.258;2022-11-20T11:55:36;95612.16;;;4.66;100.00
29379;BME280;16362;47.202;15.258;2022-11-20T12:00:36;95623.78;;;4.99;100.00
29379;BME280;16362;47.202;15.258;2022-11-20T12:13:36;95625.44;;;5.00;100.00
29379;BME280;16362;47.202;15.258;2022-11-20T12:16:07;95615.09;;;5.15;100.00
29379;BME280;16362;47.202;15.258;2022-11-20T12:18:38;95610.09;;;5.04;100.00
29379;BME280;16362;47.202;15.258;2022-11-20T12:23:44;95616.09;;;5.14;100.00
29379;BME280;16362;47.202;15.258;2022-11-20T12:26:17;95608.19;;;5.14;100.00
29379;BME280;16362;47.202;15.258;2022-11-20T12:39:13;95620.78;;;5.29;100.00
29379;BME280;16362;47.202;15.258;2022-11-20T12:49:54;95618.69;;;5.32;100.00
29379;BME280;16362;47.202;15.258;2022-11-20T13:02:23;95625.84;;;5.40;100.00
29379;BME280;16362;47.202;15.258;2022-11-20T13:07:34;95625.09;;;5.30;100.00
29379;BME280;16362;47.202;15.258;2022-11-20T13:10:01;95622.09;;;5.25;100.00
29379;BME280;16362;47.202;15.258;2022-11-20T13:18:01;95614.97;;;5.17;100.00
29379;BME280;16362;47.202;15.258;2022-11-20T13:20:29;95607.31;;;5.14;100.00
29379;BME280;16362;47.202;15.258;2022-11-20T13:22:56;95610.69;;;4.98;100.00
29379;BME280;16362;47.202;15.258;2022-11-20T13:27:52;95606.66;;;4.85;100.00
29379;BME280;16362;47.202;15.258;2022-11-20T13:30:20;95610.91;;;4.78;100.00
29379;BME280;16362;47.202;15.258;2022-11-20T13:32:48;95612.66;;;4.69;100.00
29379;BME280;16362;47.202;15.258;2022-11-20T13:35:24;95608.97;;;4.62;100.00
29379;BME280;16362;47.202;15.258;2022-11-20T13:38:07;95608.44;;;4.59;100.00
29379;BME280;16362;47.202;15.258;2022-11-20T13:40:54;95603.63;;;4.54;100.00
29379;BME280;16362;47.202;15.258;2022-11-20T13:43:28;95604.44;;;4.54;100.00
29379;BME280;16362;47.202;15.258;2022-11-20T13:45:59;95610.03;;;4.51;100.00
29379;BME280;16362;47.202;15.258;2022-11-20T13:48:29;95601.59;;;4.48;100.00
29379;BME280;16362;47.202;15.258;2022-11-20T13:55:53;95604.94;;;4.32;100.00
29379;BME280;16362;47.202;15.258;2022-11-20T14:01:14;95600.03;;;4.19;100.00
29379;BME280;16362;47.202;15.258;2022-11-20T14:03:37;95600.50;;;4.14;100.00
29379;BME280;16362;47.202;15.258;2022-11-20T14:06:30;95598.81;;;4.13;100.00
29379;BME280;16362;47.202;15.258;2022-11-20T14:08:58;95590.38;;;4.10;100.00
29379;BME280;16362;47.202;15.258;2022-11-20T14:11:27;95599.28;;;4.09;100.00
29379;BME280;16362;47.202;15.258;2022-11-20T14:13:58;95593.31;;;4.07;100.00
29379;BME280;16362;47.202;15.258;2022-11-20T14:16:26;95603.34;;;4.03;100.00
29379;BME280;16362;47.202;15.258;2022-11-20T14:18:53;95600.34;;;3.98;100.00
29379;BME280;16362;47.202;15.258;2022-11-20T14:21:27;95603.25;;;3.95;100.00
29379;BME280;16362;47.202;15.258;2022-11-20T14:24:04;95597.59;;;3.90;100.00
29379;BME280;16362;47.202;15.258;2022-11-20T14:26:31;95604.16;;;3.85;100.00
29379;BME280;16362;47.202;15.258;2022-11-20T14:28:58;95594.06;;;3.81;100.00
29379;BME280;16362;47.202;15.258;2022-11-20T14:31:26;95596.44;;;3.74;100.00
29379;BME280;16362;47.202;15.258;2022-11-20T14:33:53;95594.28;;;3.69;100.00
29379;BME280;16362;47.202;15.258;2022-11-20T14:36:24;95584.28;;;3.63;100.00
29379;BME280;16362;47.202;15.258;2022-11-20T14:38:51;95598.22;;;3.56;100.00
29379;BME280;16362;47.202;15.258;2022-11-20T14:41:20;95589.09;;;3.50;100.00
29379;BME280;16362;47.202;15.258;2022-11-20T14:43:52;95591.34;;;3.45;100.00
29379;BME280;16362;47.202;15.258;2022-11-20T14:46:20;95590.41;;;3.36;100.00
29379;BME280;16362;47.202;15.258;2022-11-20T14:48:48;95596.97;;;3.32;100.00